createdAt,value
2018-07-04T00:00:59.273Z,94.35
2018-07-04T00:03:44.256Z,93.71
2018-07-04T00:06:29.107Z,92.96
2018-07-04T00:09:14.078Z,90.03
2018-07-04T00:11:59.032Z,88.28
2018-07-04T00:14:44.064Z,86.10
2018-07-04T00:17:28.996Z,85.45
2018-07-04T00:20:13.970Z,85.55
2018-07-04T00:22:59.010Z,85.86
2018-07-04T00:25:43.916Z,87.20
2018-07-04T00:28:28.818Z,88.39
2018-07-04T00:31:13.704Z,88.32
2018-07-04T00:33:58.743Z,87.30
2018-07-04T00:36:52.907Z,86.75
2018-07-04T00:42:28.824Z,85.82
2018-07-04T00:45:13.848Z,85.27
2018-07-04T00:47:58.830Z,86.37
2018-07-04T00:50:43.744Z,87.18
2018-07-04T00:53:28.589Z,86.96
2018-07-04T00:56:13.600Z,86.56
2018-07-04T00:58:58.497Z,87.08
2018-07-04T01:01:43.679Z,87.25
2018-07-04T01:04:28.606Z,88.61
2018-07-04T01:07:13.523Z,89.11
2018-07-04T01:09:58.347Z,88.35
2018-07-04T01:12:43.461Z,86.57
2018-07-04T01:15:28.268Z,86.95
2018-07-04T01:18:13.282Z,89.82
2018-07-04T01:21:03.663Z,93.30
2018-07-04T01:23:48.825Z,94.38
2018-07-04T01:26:34.408Z,96.10
2018-07-04T01:29:19.479Z,96.72
2018-07-04T01:32:04.296Z,97.00
2018-07-04T01:34:49.269Z,96.99
2018-07-04T01:37:34.038Z,95.81
2018-07-04T01:40:19.125Z,95.46
2018-07-04T01:43:03.956Z,95.09
2018-07-04T01:45:48.864Z,93.10
2018-07-04T01:48:33.733Z,92.24
2018-07-04T01:51:18.780Z,91.70
2018-07-04T01:54:03.616Z,90.28
2018-07-04T01:56:48.485Z,89.82
2018-07-04T01:59:33.417Z,89.55
2018-07-04T02:02:18.375Z,89.36
2018-07-04T02:05:03.320Z,89.32
2018-07-04T02:07:48.376Z,88.33
2018-07-04T02:10:33.207Z,87.87
2018-07-04T02:13:18.147Z,88.58
2018-07-04T02:16:03.132Z,89.83
2018-07-04T02:18:48.128Z,90.74
2018-07-04T02:21:32.872Z,89.02
2018-07-04T02:24:17.963Z,88.38
2018-07-04T02:27:03.031Z,87.59
2018-07-04T02:29:47.989Z,86.92
2018-07-04T02:32:32.792Z,87.41
2018-07-04T02:35:17.705Z,88.89
2018-07-04T02:38:02.618Z,88.27
2018-07-04T02:40:47.631Z,88.29
2018-07-04T02:43:32.697Z,87.14
2018-07-04T02:46:23.217Z,87.25
2018-07-04T02:49:08.220Z,87.70
2018-07-04T02:51:53.339Z,87.25
2018-07-04T02:54:38.178Z,87.39
2018-07-04T02:57:23.143Z,87.85
2018-07-04T03:00:07.903Z,86.93
2018-07-04T03:02:52.846Z,88.41
2018-07-04T03:05:37.834Z,90.17
2018-07-04T03:08:22.857Z,90.10
2018-07-04T03:11:07.668Z,89.04
2018-07-04T03:13:52.617Z,89.60
2018-07-04T03:16:37.629Z,90.24
2018-07-04T03:19:22.633Z,90.99
2018-07-04T03:25:12.827Z,90.84
2018-07-04T03:27:57.707Z,87.27
2018-07-04T03:30:42.692Z,83.05
2018-07-04T03:33:27.520Z,83.68
2018-07-04T03:36:12.549Z,83.14
2018-07-04T03:38:57.521Z,82.48
2018-07-04T03:41:42.753Z,83.91
2018-07-04T03:44:27.605Z,84.49
